Aviation Digital Data Service (ADDS)

Output produced by METARs form (0816 UTC 23 September 2014)
found at http://www.aviationweather.gov/adds/metars/
 
KBMI 230537Z 2306/2406 VRB03KT P6SM SKC 
     FM231400 16007KT P6SM SCT250 
     FM240000 12006KT P6SM BKN200